Time;durP1;ratioP1;P1;durP2;ratioP2;P2;SDS_P1;SDS_P2;PMS_P1;PMS_P2;Temp;Humidity;BMP_temperature;BMP_pressure;BME280_temperature;BME280_humidity;BME280_pressure;Samples;Min_cycle;Max_cycle;Signal;HPM_P1;HPM_P2
2021/03/08 00:01:31;;;;;;;22.93;17.60;;;4.40;99.90;;;;;;5116450;28;20154;-66
2021/03/08 00:03:57;;;;;;;23.30;17.07;;;4.40;99.90;;;;;;5113323;28;20166;-65
2021/03/08 00:06:22;;;;;;;22.80;17.50;;;4.40;99.90;;;;;;5096166;28;20166;-65
2021/03/08 00:08:48;;;;;;;20.63;16.63;;;4.40;99.90;;;;;;5096084;28;20232;-66
2021/03/08 00:11:13;;;;;;;21.20;16.40;;;4.40;99.90;;;;;;5095800;28;20173;-66
2021/03/08 00:13:38;;;;;;;23.03;17.47;;;4.40;99.90;;;;;;5096286;28;20147;-65
2021/03/08 00:16:04;;;;;;;20.50;17.13;;;4.40;99.90;;;;;;5096052;28;20174;-65
2021/03/08 00:18:30;;;;;;;24.30;18.00;;;4.40;99.90;;;;;;5095887;28;20170;-65
2021/03/08 00:20:55;;;;;;;22.57;15.87;;;4.40;99.90;;;;;;5095666;28;20293;-65
2021/03/08 00:23:21;;;;;;;19.60;15.60;;;4.40;99.90;;;;;;5095609;28;20710;-65
2021/03/08 00:25:46;;;;;;;21.03;16.23;;;4.30;99.90;;;;;;5094599;28;20642;-66
2021/03/08 00:28:12;;;;;;;21.50;16.70;;;4.30;99.90;;;;;;5095652;28;20191;-66
2021/03/08 00:30:37;;;;;;;23.03;18.77;;;4.30;99.90;;;;;;5095620;28;20546;-66
2021/03/08 00:33:03;;;;;;;21.77;16.83;;;4.30;99.90;;;;;;5096026;28;20178;-66
2021/03/08 00:35:29;;;;;;;19.70;17.03;;;4.30;99.90;;;;;;5095459;28;20147;-66
2021/03/08 00:37:54;;;;;;;21.83;17.80;;;4.40;99.90;;;;;;5095410;28;20147;-65
2021/03/08 00:40:22;;;;;;;21.50;17.33;;;4.40;99.90;;;;;;5095305;28;20578;-65
2021/03/08 00:42:48;;;;;;;20.40;16.40;;;4.40;99.90;;;;;;5094072;28;20200;-66
2021/03/08 00:45:16;;;;;;;21.73;16.70;;;4.40;99.90;;;;;;5095522;28;20458;-65
2021/03/08 00:47:43;;;;;;;22.10;18.17;;;4.40;99.90;;;;;;5095452;28;20459;-65
2021/03/08 00:50:15;;;;;;;20.30;17.53;;;4.40;99.90;;;;;;5095365;28;20409;-65
2021/03/08 00:52:42;;;;;;;23.80;18.07;;;4.50;99.90;;;;;;5094978;28;20397;-65
2021/03/08 00:55:08;;;;;;;21.23;16.50;;;4.50;99.90;;;;;;5094876;28;20440;-65
2021/03/08 00:57:33;;;;;;;25.77;17.83;;;4.50;99.90;;;;;;5094887;28;20405;-66
2021/03/08 00:59:59;;;;;;;26.63;17.43;;;4.50;99.90;;;;;;5093791;28;20403;-66
2021/03/08 01:02:24;;;;;;;21.13;17.40;;;4.50;99.90;;;;;;5094806;28;20584;-66
2021/03/08 01:04:50;;;;;;;23.87;19.53;;;4.50;99.90;;;;;;5096161;28;20189;-66
2021/03/08 01:07:16;;;;;;;24.83;17.70;;;4.50;99.90;;;;;;5115330;28;20515;-65
2021/03/08 01:09:41;;;;;;;26.50;19.67;;;4.50;99.90;;;;;;5115150;28;20162;-65
2021/03/08 01:12:08;;;;;;;25.10;17.90;;;4.50;99.90;;;;;;5115066;28;20159;-65
2021/03/08 01:14:33;;;;;;;24.97;18.47;;;4.50;99.90;;;;;;5114832;27;20498;-65
2021/03/08 01:16:59;;;;;;;26.17;19.60;;;4.40;99.90;;;;;;5114939;28;20396;-65
2021/03/08 01:19:24;;;;;;;24.07;19.10;;;4.40;99.90;;;;;;5115019;28;20248;-65
2021/03/08 01:21:50;;;;;;;30.77;21.47;;;4.40;99.90;;;;;;5113987;28;20250;-65
2021/03/08 01:24:15;;;;;;;28.73;20.00;;;4.40;99.90;;;;;;5114913;28;20193;-65
2021/03/08 01:26:41;;;;;;;24.77;21.47;;;4.40;99.90;;;;;;5114858;27;20635;-66
2021/03/08 01:29:06;;;;;;;31.60;22.30;;;4.40;99.90;;;;;;5114658;28;20225;-66
2021/03/08 01:31:32;;;;;;;29.30;22.53;;;4.40;99.90;;;;;;5114754;28;20158;-66
2021/03/08 01:33:57;;;;;;;34.83;24.70;;;4.40;99.90;;;;;;5114776;28;20589;-65
2021/03/08 01:36:23;;;;;;;33.07;22.93;;;4.40;99.90;;;;;;5114571;28;20644;-65
2021/03/08 01:38:49;;;;;;;25.90;21.17;;;4.40;99.90;;;;;;5113959;28;20159;-65
2021/03/08 01:41:15;;;;;;;32.67;25.30;;;4.40;99.90;;;;;;5114604;28;20252;-65
2021/03/08 01:43:41;;;;;;;31.20;23.07;;;4.50;99.90;;;;;;5114478;28;20165;-65
2021/03/08 01:46:07;;;;;;;27.93;23.50;;;4.50;99.90;;;;;;5114384;28;20411;-65
2021/03/08 01:48:32;;;;;;;30.40;22.57;;;4.50;99.90;;;;;;5114428;28;20466;-65
2021/03/08 01:50:58;;;;;;;28.73;20.90;;;4.50;99.90;;;;;;5114425;28;20147;-65
2021/03/08 01:53:27;;;;;;;29.17;22.50;;;4.50;99.90;;;;;;5113474;28;20237;-66
2021/03/08 01:55:53;;;;;;;31.20;23.60;;;4.50;99.90;;;;;;5113358;28;20146;-65
2021/03/08 01:58:19;;;;;;;29.50;22.73;;;4.50;99.90;;;;;;5114262;28;20774;-65
2021/03/08 02:00:44;;;;;;;29.30;21.77;;;4.50;99.90;;;;;;5114318;28;20640;-66
2021/03/08 02:03:10;;;;;;;35.57;23.43;;;4.50;99.90;;;;;;5114232;28;20158;-66
2021/03/08 02:05:38;;;;;;;36.10;23.10;;;4.50;99.90;;;;;;5097153;28;20174;-66
2021/03/08 02:08:08;;;;;;;39.60;27.03;;;4.50;99.90;;;;;;5093709;28;20194;-65
2021/03/08 02:10:36;;;;;;;38.00;25.17;;;4.50;99.90;;;;;;5092543;28;20389;-66
2021/03/08 02:16:07;;;;;;;30.13;22.70;;;4.40;99.90;;;;;;5131589;27;20507;-65
2021/03/08 02:21:48;;;;;;;33.37;25.67;;;4.40;99.90;;;;;;5131566;27;20561;-65
2021/03/08 02:24:48;;;;;;;30.00;22.40;;;4.40;99.90;;;;;;5131343;27;20468;-65
2021/03/08 02:32:32;;;;;;;28.90;23.00;;;4.40;99.90;;;;;;5110740;27;20505;-65
2021/03/08 02:38:06;;;;;;;31.53;23.57;;;4.40;99.90;;;;;;5110846;27;20513;-65
2021/03/08 02:40:36;;;;;;;29.40;22.90;;;4.40;99.90;;;;;;5110145;28;20447;-65
2021/03/08 02:43:07;;;;;;;31.27;23.47;;;4.40;99.90;;;;;;5110853;28;20388;-65
2021/03/08 02:45:33;;;;;;;31.87;23.87;;;4.40;99.90;;;;;;5110746;28;20502;-65
2021/03/08 02:48:02;;;;;;;29.37;23.43;;;4.30;99.90;;;;;;5099846;28;20409;-65
2021/03/08 02:50:33;;;;;;;28.30;21.80;;;4.30;99.90;;;;;;5090095;28;20450;-65
2021/03/08 02:53:05;;;;;;;44.93;32.53;;;4.30;99.90;;;;;;5090360;28;20880;-65
2021/03/08 02:55:39;;;;;;;41.10;28.50;;;4.30;99.90;;;;;;5090170;28;20442;-65
2021/03/08 02:58:08;;;;;;;39.53;28.00;;;4.30;99.90;;;;;;5090532;28;20402;-65
2021/03/08 03:00:35;;;;;;;38.90;28.10;;;4.30;99.90;;;;;;5090060;28;20417;-65
2021/03/08 03:03:01;;;;;;;35.20;25.53;;;4.30;99.90;;;;;;5090044;28;20398;-65
2021/03/08 03:05:27;;;;;;;34.40;25.63;;;4.30;99.90;;;;;;5104691;28;20458;-65
2021/03/08 03:07:55;;;;;;;32.10;25.40;;;4.30;99.90;;;;;;5110321;28;20210;-65
2021/03/08 03:10:27;;;;;;;31.50;24.17;;;4.30;99.90;;;;;;5110146;28;20463;-65
2021/03/08 03:12:53;;;;;;;34.07;25.57;;;4.30;99.90;;;;;;5110262;28;20849;-65
2021/03/08 03:15:19;;;;;;;32.87;25.80;;;4.30;99.90;;;;;;5110169;28;20400;-65
2021/03/08 03:17:47;;;;;;;35.00;24.70;;;4.30;99.90;;;;;;5110095;28;20396;-65
2021/03/08 03:20:14;;;;;;;36.77;25.73;;;4.30;99.90;;;;;;5110024;28;20392;-65
2021/03/08 03:22:45;;;;;;;29.80;24.50;;;4.30;99.90;;;;;;5109406;28;20458;-65
2021/03/08 03:25:15;;;;;;;28.47;24.00;;;4.30;99.90;;;;;;5110488;28;20393;-65
2021/03/08 03:27:42;;;;;;;35.37;25.13;;;4.30;99.90;;;;;;5108967;28;20461;-64
2021/03/08 03:30:08;;;;;;;37.87;25.77;;;4.30;99.90;;;;;;5109835;28;20788;-64
2021/03/08 03:32:35;;;;;;;35.07;26.93;;;4.20;99.90;;;;;;5109737;28;20390;-64
2021/03/08 03:35:00;;;;;;;33.07;24.27;;;4.30;99.90;;;;;;5109895;28;20453;-64
2021/03/08 03:37:27;;;;;;;32.93;26.70;;;4.20;99.90;;;;;;5109493;28;20459;-64
2021/03/08 03:39:53;;;;;;;34.40;25.93;;;4.30;99.90;;;;;;5108856;28;20167;-64
2021/03/08 03:42:19;;;;;;;34.07;26.30;;;4.30;99.90;;;;;;5109634;28;20457;-64
2021/03/08 03:44:45;;;;;;;33.30;25.90;;;4.30;99.90;;;;;;5108297;28;20856;-64
2021/03/08 03:47:12;;;;;;;35.80;26.50;;;4.30;99.90;;;;;;5106391;28;20422;-64
2021/03/08 03:49:38;;;;;;;34.07;26.23;;;4.20;99.90;;;;;;5095847;28;20409;-64
2021/03/08 03:52:05;;;;;;;40.73;29.87;;;4.20;99.90;;;;;;5095952;28;20393;-64
2021/03/08 03:54:31;;;;;;;34.47;26.40;;;4.20;99.90;;;;;;5094742;28;20404;-64
2021/03/08 03:57:02;;;;;;;35.70;24.90;;;4.30;99.90;;;;;;5095824;28;20479;-64
2021/03/08 03:59:41;;;;;;;38.87;27.57;;;4.30;99.90;;;;;;5094615;28;20390;-64
2021/03/08 04:02:10;;;;;;;39.40;27.17;;;4.20;99.90;;;;;;5095620;28;20779;-64
2021/03/08 04:04:42;;;;;;;42.20;28.33;;;4.20;99.90;;;;;;5086986;28;20410;-64
2021/03/08 04:07:09;;;;;;;36.10;26.63;;;4.20;99.90;;;;;;5075267;28;20394;-64
2021/03/08 04:09:37;;;;;;;35.17;27.00;;;4.20;99.90;;;;;;5075341;28;20484;-64
2021/03/08 04:12:07;;;;;;;44.57;26.87;;;4.20;99.90;;;;;;5074674;28;20417;-64
2021/03/08 04:14:34;;;;;;;43.57;28.00;;;4.20;99.90;;;;;;5075219;28;20398;-64
2021/03/08 04:17:00;;;;;;;40.97;28.57;;;4.20;99.90;;;;;;5075007;28;20487;-64
2021/03/08 04:19:30;;;;;;;36.63;27.00;;;4.20;99.90;;;;;;5075202;28;20410;-64
2021/03/08 04:22:00;;;;;;;39.40;28.80;;;4.20;99.90;;;;;;5074952;28;20394;-64
2021/03/08 04:24:27;;;;;;;45.50;28.87;;;4.20;99.90;;;;;;5074281;28;20393;-64
2021/03/08 04:26:55;;;;;;;42.73;28.97;;;4.20;99.90;;;;;;5075178;28;20455;-64
2021/03/08 04:29:22;;;;;;;46.63;28.03;;;4.20;99.90;;;;;;5074275;28;20462;-64
2021/03/08 04:31:47;;;;;;;38.03;29.27;;;4.20;99.90;;;;;;5074875;28;20398;-64
2021/03/08 04:34:15;;;;;;;41.30;28.60;;;4.20;99.90;;;;;;5074784;28;20401;-64
2021/03/08 04:36:41;;;;;;;32.97;25.83;;;4.20;99.90;;;;;;5074819;28;20456;-64
2021/03/08 04:39:10;;;;;;;38.47;26.87;;;4.20;99.90;;;;;;5075133;28;20413;-64
2021/03/08 04:41:36;;;;;;;38.73;27.47;;;4.20;99.90;;;;;;5074735;28;20387;-64
2021/03/08 04:44:02;;;;;;;37.40;28.90;;;4.20;99.90;;;;;;5073519;28;20889;-64
2021/03/08 04:46:29;;;;;;;36.13;28.53;;;4.20;99.90;;;;;;5075101;28;20457;-64
2021/03/08 04:48:55;;;;;;;36.37;27.00;;;4.20;99.90;;;;;;5074504;28;20406;-64
2021/03/08 04:51:22;;;;;;;37.13;27.03;;;4.20;99.90;;;;;;5074578;28;20870;-64
2021/03/08 04:53:48;;;;;;;44.00;30.07;;;4.20;99.90;;;;;;5074441;28;20397;-64
2021/03/08 04:56:16;;;;;;;37.60;28.53;;;4.20;99.90;;;;;;5074262;28;20451;-64
2021/03/08 04:58:41;;;;;;;37.97;27.60;;;4.20;99.90;;;;;;5074057;28;20426;-64
2021/03/08 05:01:08;;;;;;;38.70;27.33;;;4.20;99.90;;;;;;5073757;28;20921;-65
2021/03/08 05:03:37;;;;;;;38.90;29.30;;;4.20;99.90;;;;;;5074944;28;20288;-64
2021/03/08 05:06:06;;;;;;;43.03;28.47;;;4.20;99.90;;;;;;5074245;28;20390;-64
2021/03/08 05:08:34;;;;;;;41.20;28.70;;;4.20;99.90;;;;;;5073169;28;20421;-64
2021/03/08 05:11:00;;;;;;;38.40;29.17;;;4.20;99.90;;;;;;5074058;28;20437;-64
2021/03/08 05:13:30;;;;;;;41.30;29.33;;;4.20;99.90;;;;;;5074093;28;20405;-64
2021/03/08 05:15:59;;;;;;;36.30;27.80;;;4.20;99.90;;;;;;5073850;28;20495;-64
2021/03/08 05:18:25;;;;;;;42.07;30.50;;;4.20;99.90;;;;;;5074539;28;20393;-64
2021/03/08 05:20:52;;;;;;;42.13;30.73;;;4.20;99.90;;;;;;5074517;28;20412;-64
2021/03/08 05:23:18;;;;;;;44.93;31.17;;;4.20;99.90;;;;;;5074152;28;20865;-64
2021/03/08 05:25:44;;;;;;;40.77;29.97;;;4.20;99.90;;;;;;5073682;28;20401;-64
2021/03/08 05:28:11;;;;;;;41.07;29.23;;;4.20;99.90;;;;;;5074086;28;20398;-64
2021/03/08 05:30:38;;;;;;;38.30;29.13;;;4.20;99.90;;;;;;5072670;28;20394;-64
2021/03/08 05:33:11;;;;;;;42.00;29.63;;;4.20;99.90;;;;;;5072605;28;20422;-64
2021/03/08 05:35:37;;;;;;;39.87;29.97;;;4.20;99.90;;;;;;5073728;28;20418;-64
2021/03/08 05:38:04;;;;;;;42.17;29.77;;;4.20;99.90;;;;;;5072965;28;20421;-64
2021/03/08 05:40:39;;;;;;;38.47;28.87;;;4.20;99.90;;;;;;5072582;28;20162;-64
2021/03/08 05:43:10;;;;;;;38.63;30.30;;;4.20;99.90;;;;;;5073489;28;20814;-64
2021/03/08 05:45:41;;;;;;;42.20;30.60;;;4.20;99.90;;;;;;5073466;28;20431;-64
2021/03/08 05:48:20;;;;;;;41.20;30.33;;;4.20;99.90;;;;;;5073594;28;20403;-64
2021/03/08 05:59:53;;;;;;;46.37;30.17;;;4.20;99.90;;;;;;5110887;27;20867;-64
2021/03/08 06:10:34;;;;;;;40.10;30.13;;;4.20;99.90;;;;;;5111178;27;20509;-64
2021/03/08 06:13:08;;;;;;;44.70;32.63;;;4.20;99.90;;;;;;5110407;28;20483;-64
2021/03/08 06:15:36;;;;;;;40.97;31.23;;;4.20;99.90;;;;;;5110003;28;20380;-64
2021/03/08 06:18:07;;;;;;;39.30;31.30;;;4.20;99.90;;;;;;5110935;28;20416;-64
2021/03/08 06:20:33;;;;;;;43.23;31.67;;;4.30;99.90;;;;;;5110659;28;20389;-64
2021/03/08 06:23:00;;;;;;;40.80;30.30;;;4.30;99.90;;;;;;5110965;28;20385;-64
2021/03/08 06:25:27;;;;;;;41.67;29.90;;;4.30;99.90;;;;;;5110906;28;20181;-64
2021/03/08 06:27:54;;;;;;;43.47;31.67;;;4.30;99.90;;;;;;5109874;28;20395;-64
2021/03/08 06:30:22;;;;;;;42.93;30.13;;;4.30;99.90;;;;;;5110505;28;20468;-64
2021/03/08 06:32:48;;;;;;;46.83;30.50;;;4.30;99.90;;;;;;5110540;28;20393;-64
2021/03/08 06:35:16;;;;;;;44.03;31.63;;;4.30;99.90;;;;;;5110686;28;20896;-64
2021/03/08 06:37:42;;;;;;;42.70;31.50;;;4.30;99.90;;;;;;5110668;28;20533;-64
2021/03/08 06:40:09;;;;;;;41.07;29.50;;;4.40;99.90;;;;;;5110240;28;20426;-64
2021/03/08 06:42:36;;;;;;;42.13;30.80;;;4.40;99.90;;;;;;5110465;28;20397;-64
2021/03/08 06:45:01;;;;;;;39.93;29.37;;;4.40;99.90;;;;;;5109848;28;20897;-64
2021/03/08 06:47:27;;;;;;;46.67;31.00;;;4.50;99.90;;;;;;5110154;28;20432;-64
2021/03/08 06:49:54;;;;;;;39.40;29.80;;;4.50;99.90;;;;;;5110234;28;20190;-64
2021/03/08 06:52:21;;;;;;;40.40;31.00;;;4.40;99.90;;;;;;5110279;28;20398;-64
2021/03/08 06:55:03;;;;;;;54.73;33.10;;;4.50;99.90;;;;;;5110530;28;20448;-64
2021/03/08 06:57:30;;;;;;;39.93;29.63;;;4.50;99.90;;;;;;5110101;28;20416;-64
2021/03/08 06:59:58;;;;;;;42.47;30.37;;;4.50;99.90;;;;;;5108769;28;20738;-64
2021/03/08 07:02:41;;;;;;;46.70;32.13;;;4.50;99.90;;;;;;5109129;28;20462;-64
2021/03/08 07:05:08;;;;;;;44.90;31.87;;;4.60;99.90;;;;;;5097184;28;20412;-64
2021/03/08 07:07:55;;;;;;;44.00;31.17;;;4.60;99.90;;;;;;5089687;28;20392;-64
2021/03/08 07:10:31;;;;;;;41.63;30.10;;;4.60;99.90;;;;;;5088271;28;20488;-64
2021/03/08 07:12:57;;;;;;;44.87;32.60;;;4.60;99.90;;;;;;5089776;28;20446;-64
2021/03/08 07:15:22;;;;;;;47.20;32.90;;;4.60;99.90;;;;;;5089465;28;20389;-64
2021/03/08 07:17:48;;;;;;;48.73;32.40;;;4.70;99.90;;;;;;5089783;28;20155;-64
2021/03/08 07:20:15;;;;;;;45.23;31.90;;;4.70;99.90;;;;;;5085647;28;20206;-64
2021/03/08 07:22:47;;;;;;;43.43;31.93;;;4.70;99.90;;;;;;5075968;28;20608;-65
2021/03/08 07:25:32;;;;;;;47.67;34.17;;;4.70;99.90;;;;;;5075947;28;20393;-64
2021/03/08 07:28:01;;;;;;;46.53;35.00;;;4.70;99.90;;;;;;5074794;28;20394;-64
2021/03/08 07:33:06;;;;;;;43.60;32.27;;;4.70;99.90;;;;;;5110899;27;21034;-64
2021/03/08 07:38:13;;;;;;;48.03;34.10;;;4.80;99.90;;;;;;5111105;27;20505;-64
2021/03/08 07:40:41;;;;;;;49.23;33.60;;;4.80;99.90;;;;;;5109512;28;20401;-64
2021/03/08 07:43:07;;;;;;;48.67;34.20;;;4.80;99.90;;;;;;5110986;28;20475;-64
2021/03/08 07:45:42;;;;;;;46.90;34.27;;;4.80;99.90;;;;;;5109804;28;20456;-64
2021/03/08 07:48:10;;;;;;;43.50;31.77;;;4.80;99.90;;;;;;5110783;28;20387;-64
2021/03/08 07:50:36;;;;;;;45.43;34.30;;;4.80;99.90;;;;;;5110681;28;20384;-64
2021/03/08 07:53:01;;;;;;;44.10;33.30;;;4.80;99.90;;;;;;5107696;28;20469;-64
2021/03/08 07:55:42;;;;;;;50.17;35.47;;;4.80;99.90;;;;;;5090053;28;20632;-64
2021/03/08 07:58:09;;;;;;;49.90;34.53;;;4.80;99.90;;;;;;5090412;28;20178;-64
2021/03/08 08:00:34;;;;;;;45.17;34.77;;;4.80;99.90;;;;;;5090083;28;20873;-64
2021/03/08 08:03:00;;;;;;;51.37;34.57;;;4.90;99.90;;;;;;5090142;28;20504;-64
2021/03/08 08:05:26;;;;;;;50.00;33.90;;;4.90;99.90;;;;;;5089884;28;20545;-64
2021/03/08 08:07:54;;;;;;;48.87;35.30;;;4.90;99.90;;;;;;5090072;28;20225;-64
2021/03/08 08:10:20;;;;;;;46.70;35.80;;;4.90;99.90;;;;;;5095325;28;20216;-64
2021/03/08 08:12:48;;;;;;;53.23;36.07;;;4.80;99.90;;;;;;5110339;28;20393;-64
2021/03/08 08:15:17;;;;;;;51.67;36.97;;;4.70;99.90;;;;;;5110214;28;20385;-64
2021/03/08 08:17:45;;;;;;;50.10;36.90;;;4.70;99.90;;;;;;5110258;28;20450;-64
2021/03/08 08:20:12;;;;;;;54.43;36.30;;;4.80;99.90;;;;;;5110361;28;20467;-65
2021/03/08 08:22:47;;;;;;;55.13;37.20;;;4.70;99.90;;;;;;5110506;28;20899;-64
2021/03/08 08:25:15;;;;;;;54.70;36.77;;;4.70;99.90;;;;;;5110194;28;20380;-64
2021/03/08 08:27:42;;;;;;;52.67;37.00;;;4.80;99.90;;;;;;5109251;28;20465;-64
2021/03/08 08:30:08;;;;;;;50.87;34.50;;;4.80;99.90;;;;;;5110001;28;20826;-64
2021/03/08 08:32:53;;;;;;;49.63;35.33;;;4.80;99.90;;;;;;5109883;28;20384;-64
2021/03/08 08:35:22;;;;;;;50.43;37.20;;;4.90;99.90;;;;;;5109747;28;20515;-64
2021/03/08 08:40:47;;;;;;;48.07;36.20;;;4.90;99.90;;;;;;5131430;27;20512;-65
2021/03/08 08:43:19;;;;;;;53.10;37.47;;;4.90;99.90;;;;;;5130140;28;20395;-64
2021/03/08 08:45:47;;;;;;;53.20;36.13;;;5.00;99.90;;;;;;5112131;28;20424;-64
2021/03/08 08:48:12;;;;;;;49.90;36.20;;;5.00;99.90;;;;;;5109526;28;20416;-64
2021/03/08 08:50:55;;;;;;;51.33;39.00;;;5.00;99.90;;;;;;5110780;28;20804;-64
2021/03/08 08:56:12;;;;;;;51.40;37.60;;;5.00;99.90;;;;;;5110878;27;20514;-64
2021/03/08 08:58:48;;;;;;;51.30;38.47;;;5.10;99.90;;;;;;5111116;28;20373;-64
2021/03/08 09:07:02;;;;;;;58.70;39.50;;;5.10;99.90;;;;;;5110861;27;20505;-64
2021/03/08 09:12:41;;;;;;;55.97;40.03;;;5.20;99.90;;;;;;5131388;27;20505;-64
2021/03/08 09:23:01;;;;;;;61.47;40.70;;;5.30;99.90;;;;;;5110914;27;20502;-64
2021/03/08 09:28:08;;;;;;;57.13;39.70;;;5.50;99.90;;;;;;5110878;27;20554;-64
2021/03/08 09:30:39;;;;;;;55.93;37.63;;;5.50;99.90;;;;;;5110807;28;20384;-64
2021/03/08 09:35:45;;;;;;;52.67;38.60;;;5.50;99.90;;;;;;5081810;28;20523;-64
2021/03/08 09:38:14;;;;;;;52.33;36.27;;;5.60;99.90;;;;;;5070324;28;20386;-64
2021/03/08 09:40:42;;;;;;;55.03;38.53;;;5.60;99.90;;;;;;5070462;28;20378;-64
2021/03/08 09:43:30;;;;;;;57.47;39.33;;;5.60;99.90;;;;;;5052299;28;20750;-64
2021/03/08 09:48:37;;;;;;;60.90;40.47;;;5.70;99.90;;;;;;5131388;27;20507;-64
2021/03/08 09:53:48;;;;;;;55.53;39.10;;;5.80;99.90;;;;;;5114531;27;20563;-64
2021/03/08 09:56:16;;;;;;;62.30;41.37;;;5.80;99.90;;;;;;5109679;28;20473;-64
2021/03/08 09:58:43;;;;;;;62.07;42.77;;;5.80;99.90;;;;;;5110068;28;20389;-64
2021/03/08 10:03:48;;;;;;;61.87;43.00;;;5.90;99.90;;;;;;5131788;27;20912;-64
2021/03/08 10:06:26;;;;;;;61.97;40.40;;;6.10;99.90;;;;;;5130299;28;20420;-64
2021/03/08 10:08:52;;;;;;;59.53;42.67;;;6.10;99.90;;;;;;5128531;27;20878;-64
2021/03/08 10:11:27;;;;;;;67.63;43.33;;;6.20;99.90;;;;;;5111046;28;20384;-64
2021/03/08 10:13:53;;;;;;;64.80;41.00;;;6.30;99.90;;;;;;5109869;28;20398;-64
2021/03/08 10:16:22;;;;;;;60.93;40.40;;;6.40;99.90;;;;;;5110681;28;20384;-64
2021/03/08 10:18:47;;;;;;;63.87;40.97;;;6.50;99.90;;;;;;5110973;28;20395;-64
2021/03/08 10:21:13;;;;;;;61.33;41.73;;;6.50;99.90;;;;;;5110519;28;20463;-65
2021/03/08 10:23:39;;;;;;;67.60;41.37;;;6.50;99.90;;;;;;5110608;28;20611;-64
2021/03/08 10:28:44;;;;;;;57.53;40.80;;;6.50;99.90;;;;;;5131320;27;20562;-65
2021/03/08 10:31:27;;;;;;;66.70;43.20;;;6.50;99.90;;;;;;5130430;28;20388;-64
2021/03/08 10:34:04;;;;;;;70.77;44.00;;;6.60;99.90;;;;;;5130019;28;20379;-64
2021/03/08 10:36:36;;;;;;;61.47;42.20;;;6.60;99.90;;;;;;5131433;27;20436;-64
2021/03/08 10:39:05;;;;;;;73.93;43.37;;;6.60;99.90;;;;;;5130419;28;20388;-64
2021/03/08 10:41:31;;;;;;;62.07;42.27;;;6.60;99.90;;;;;;5130162;28;20388;-64
2021/03/08 10:43:58;;;;;;;70.50;43.00;;;6.60;99.90;;;;;;5120124;27;20396;-64
2021/03/08 10:46:30;;;;;;;67.93;43.90;;;6.60;99.90;;;;;;5110391;28;20412;-64
2021/03/08 10:51:36;;;;;;;67.27;43.57;;;6.60;99.90;;;;;;5131544;27;20500;-64
2021/03/08 10:54:11;;;;;;;59.23;40.00;;;6.70;99.90;;;;;;5130482;28;20383;-64
2021/03/08 10:56:39;;;;;;;67.50;44.43;;;6.70;99.90;;;;;;5130227;28;20874;-64
2021/03/08 10:59:28;;;;;;;58.97;41.20;;;6.80;99.90;;;;;;5130107;28;20384;-64
2021/03/08 11:02:09;;;;;;;60.07;39.63;;;6.80;99.90;;;;;;5111575;28;20423;-64
2021/03/08 11:04:36;;;;;;;62.47;40.23;;;6.80;99.90;;;;;;5119255;28;20932;-64
2021/03/08 11:07:01;;;;;;;57.47;38.03;;;6.80;99.90;;;;;;5131534;27;20479;-64
2021/03/08 11:09:29;;;;;;;51.63;38.47;;;6.90;99.90;;;;;;5131109;27;20526;-64
2021/03/08 11:11:55;;;;;;;58.97;35.17;;;6.90;99.90;;;;;;5131118;27;20154;-64
2021/03/08 11:14:21;;;;;;;61.97;38.37;;;7.00;99.90;;;;;;5131104;27;20395;-64
2021/03/08 11:16:50;;;;;;;60.30;39.60;;;7.00;99.90;;;;;;5130039;27;20387;-64
2021/03/08 11:27:26;;;;;;;66.90;40.90;;;7.20;99.90;;;;;;5111074;27;20509;-64
2021/03/08 11:29:57;;;;;;;66.00;39.67;;;7.20;99.90;;;;;;5109815;28;20520;-65
2021/03/08 11:32:24;;;;;;;62.60;40.50;;;7.30;99.90;;;;;;5109462;28;20381;-64
2021/03/08 11:34:52;;;;;;;72.83;41.23;;;7.30;99.90;;;;;;5099556;28;20932;-64
2021/03/08 11:37:22;;;;;;;69.57;39.43;;;7.40;99.90;;;;;;5089320;28;20476;-64
2021/03/08 11:39:50;;;;;;;62.80;39.53;;;7.40;99.90;;;;;;5090675;28;20472;-64
2021/03/08 11:42:18;;;;;;;72.53;40.87;;;7.40;99.90;;;;;;5089147;28;20432;-64
2021/03/08 11:44:45;;;;;;;66.60;41.47;;;7.40;99.90;;;;;;5090435;28;20913;-64
2021/03/08 11:47:11;;;;;;;60.00;37.97;;;7.40;99.90;;;;;;5089058;28;20452;-64
2021/03/08 11:49:36;;;;;;;65.07;36.27;;;7.50;99.90;;;;;;5090077;28;20521;-65
2021/03/08 11:52:04;;;;;;;53.97;34.10;;;7.50;99.90;;;;;;5090936;28;20492;-65
2021/03/08 11:54:29;;;;;;;54.23;34.70;;;7.60;99.90;;;;;;5090027;28;20162;-64
2021/03/08 11:56:55;;;;;;;55.17;34.53;;;7.70;99.90;;;;;;5090289;28;20866;-65
2021/03/08 11:59:20;;;;;;;60.37;35.57;;;7.80;99.90;;;;;;5088632;28;20167;-65
2021/03/08 12:01:46;;;;;;;61.73;35.80;;;7.80;99.90;;;;;;5089976;28;20165;-64
2021/03/08 12:04:11;;;;;;;56.77;34.13;;;7.90;99.90;;;;;;5089751;28;20175;-65
2021/03/08 12:06:37;;;;;;;50.97;32.00;;;8.00;99.90;;;;;;5089695;28;20186;-65
2021/03/08 12:09:03;;;;;;;58.63;32.97;;;8.00;99.90;;;;;;5101143;28;20173;-64
2021/03/08 12:11:29;;;;;;;50.50;34.70;;;8.00;99.90;;;;;;5110121;28;20155;-65
2021/03/08 12:13:54;;;;;;;48.13;33.90;;;8.00;99.90;;;;;;5110205;28;20893;-64
2021/03/08 12:16:20;;;;;;;54.63;33.30;;;7.90;99.90;;;;;;5110186;28;20307;-64
2021/03/08 12:18:46;;;;;;;50.07;32.43;;;7.90;99.90;;;;;;5108883;28;20514;-64
2021/03/08 12:21:12;;;;;;;50.77;32.07;;;7.90;99.90;;;;;;5109888;28;20169;-65
2021/03/08 12:23:37;;;;;;;52.90;35.50;;;7.80;99.90;;;;;;5110102;28;20165;-65
2021/03/08 12:26:03;;;;;;;55.43;34.70;;;7.70;99.90;;;;;;5108517;28;20577;-65
2021/03/08 12:28:28;;;;;;;50.57;30.87;;;7.70;99.90;;;;;;5109813;28;20162;-64
2021/03/08 12:30:54;;;;;;;48.73;33.47;;;7.70;99.90;;;;;;5108735;28;20619;-65
2021/03/08 12:33:20;;;;;;;63.40;38.10;;;7.80;99.90;;;;;;5109588;28;20186;-64
2021/03/08 12:35:46;;;;;;;63.33;38.60;;;7.70;99.90;;;;;;5109605;28;20162;-65
2021/03/08 12:38:12;;;;;;;59.03;35.37;;;7.80;99.90;;;;;;5099011;28;20401;-65
2021/03/08 12:40:37;;;;;;;55.33;35.40;;;7.80;99.90;;;;;;5096000;28;20166;-64
2021/03/08 12:43:03;;;;;;;59.90;37.47;;;7.80;99.90;;;;;;5095019;28;20261;-64
2021/03/08 12:45:29;;;;;;;69.10;39.53;;;7.80;99.90;;;;;;5094756;28;20225;-65
2021/03/08 12:47:54;;;;;;;59.87;40.60;;;7.80;99.90;;;;;;5095841;28;20189;-65
2021/03/08 12:50:21;;;;;;;75.87;44.30;;;7.90;99.90;;;;;;5096160;28;20217;-64
2021/03/08 12:52:46;;;;;;;63.60;41.57;;;7.90;99.90;;;;;;5095729;28;20164;-65
2021/03/08 12:55:12;;;;;;;76.47;46.83;;;7.90;99.90;;;;;;5095876;28;20408;-65
2021/03/08 12:57:38;;;;;;;76.63;42.80;;;7.90;99.90;;;;;;5095646;28;20612;-65
2021/03/08 13:00:06;;;;;;;72.00;45.50;;;8.00;99.90;;;;;;5094744;28;20415;-64
2021/03/08 13:02:32;;;;;;;74.53;46.53;;;8.00;99.90;;;;;;5095576;28;20660;-64
2021/03/08 13:04:57;;;;;;;84.67;50.07;;;7.90;99.90;;;;;;5083676;28;20516;-65
2021/03/08 13:07:23;;;;;;;81.93;48.80;;;7.90;99.90;;;;;;5075320;28;20159;-64
2021/03/08 13:09:48;;;;;;;79.20;50.13;;;7.90;99.90;;;;;;5075179;28;20172;-64
2021/03/08 13:12:14;;;;;;;87.07;52.63;;;7.90;99.90;;;;;;5075324;28;20160;-64
2021/03/08 13:14:39;;;;;;;89.17;52.23;;;7.90;99.90;;;;;;5075171;28;20166;-64
2021/03/08 13:17:05;;;;;;;87.93;55.83;;;7.90;99.90;;;;;;5075901;28;20186;-65
2021/03/08 13:19:30;;;;;;;89.63;54.13;;;7.90;99.90;;;;;;5075158;28;20193;-65
2021/03/08 13:21:56;;;;;;;97.40;55.23;;;7.90;99.90;;;;;;5075052;28;20636;-65
2021/03/08 13:24:21;;;;;;;86.13;54.30;;;7.90;99.90;;;;;;5074860;28;20164;-65
2021/03/08 13:26:47;;;;;;;99.10;60.40;;;7.90;99.90;;;;;;5074658;28;20341;-65
2021/03/08 13:29:12;;;;;;;91.07;52.73;;;7.90;99.90;;;;;;5074878;28;20160;-65
2021/03/08 13:31:38;;;;;;;96.93;55.57;;;7.90;99.90;;;;;;5074739;28;20246;-65
2021/03/08 13:34:04;;;;;;;97.47;58.43;;;7.80;99.90;;;;;;5075387;28;20643;-65
2021/03/08 13:36:29;;;;;;;97.00;58.47;;;7.80;99.90;;;;;;5074667;28;20162;-64
2021/03/08 13:38:55;;;;;;;91.63;58.30;;;7.80;99.90;;;;;;5074627;28;20164;-64
2021/03/08 13:41:20;;;;;;;94.00;57.57;;;7.70;99.90;;;;;;5074508;28;20156;-64
2021/03/08 13:43:46;;;;;;;99.93;59.93;;;7.70;99.90;;;;;;5074736;28;20163;-65
2021/03/08 13:46:11;;;;;;;107.10;61.23;;;7.70;99.90;;;;;;5074383;28;20237;-65
2021/03/08 13:48:39;;;;;;;89.80;57.40;;;7.70;99.90;;;;;;5073824;28;20183;-65
2021/03/08 13:51:05;;;;;;;98.80;57.87;;;7.70;99.90;;;;;;5074850;28;20182;-65
2021/03/08 13:53:31;;;;;;;97.77;58.07;;;7.70;99.90;;;;;;5073102;28;20936;-65
2021/03/08 13:55:57;;;;;;;101.63;60.17;;;7.80;99.90;;;;;;5074448;28;20397;-64
2021/03/08 13:58:22;;;;;;;91.93;59.23;;;7.80;99.90;;;;;;5074305;28;20155;-64
2021/03/08 14:00:47;;;;;;;92.90;56.17;;;7.80;99.90;;;;;;5074372;28;20156;-65
2021/03/08 14:03:13;;;;;;;93.07;58.10;;;7.90;99.90;;;;;;5074106;28;20648;-65
2021/03/08 14:05:38;;;;;;;99.07;58.90;;;7.90;99.90;;;;;;5073962;28;20272;-64